Terminal Aerodrome Forecast
Issued by NWS Green Bay, WI

Home | Current Version | Previous Version | Graphics & Text | Print | Product List | Glossary On
Versions: 1 2 3 4 5 6 7 8 9 10 11 12 13 14 15 16 17 18 19 20 21 22 23 24 25 26 27 28
000
FTUS43 KGRB 150234 AAB
TAFGRB
TAF AMD
KGRB 150234Z 1503/1524 07004KT P6SM SCT045 BKN080
      TEMPO 1503/1506 -SHRA BKN035
     FM151000 01004KT 5SM BR SCT025 BKN060
      TEMPO 1510/1514 3SM BR BKN012
     FM151400 04007KT P6SM SCT025
      TEMPO 1515/1519 BKN025=

USA.gov is the U.S. government's official web portal to all federal, state and local government web resources and services.